Time;durP1;ratioP1;P1;durP2;ratioP2;P2;SDS_P1;SDS_P2;PMS_P1;PMS_P2;Temp;Humidity;BMP_temperature;BMP_pressure;BME280_temperature;BME280_humidity;BME280_pressure;Samples;Min_cycle;Max_cycle;Signal;HPM_P1;HPM_P2
2023/07/29 00:00:47;;;;;;;18.60;13.13;;;19.10;99.90;;;;;;4878582;29;20438;-89
2023/07/29 00:03:13;;;;;;;20.07;13.90;;;19.00;99.90;;;;;;4877192;29;20994;-90
2023/07/29 00:05:39;;;;;;;20.77;14.50;;;19.10;99.90;;;;;;4893551;29;20442;-91
2023/07/29 00:08:05;;;;;;;20.92;14.77;;;19.00;99.90;;;;;;4877976;29;20550;-90
2023/07/29 00:10:32;;;;;;;20.10;15.17;;;19.40;99.90;;;;;;4877360;29;21299;-90
2023/07/29 00:12:58;;;;;;;18.65;15.13;;;18.90;99.90;;;;;;4877900;29;20426;-90
2023/07/29 00:15:24;;;;;;;20.92;15.65;;;19.30;99.90;;;;;;4876584;29;20454;-91
2023/07/29 00:17:49;;;;;;;21.53;15.83;;;19.10;99.90;;;;;;4877941;29;20898;-90
2023/07/29 00:20:15;;;;;;;22.98;16.55;;;18.90;99.90;;;;;;4860919;29;21186;-90
2023/07/29 00:22:41;;;;;;;20.70;16.17;;;18.80;99.90;;;;;;4893325;29;20411;-90
2023/07/29 00:25:07;;;;;;;24.48;16.17;;;19.20;99.90;;;;;;4861457;29;20454;-90
2023/07/29 00:27:32;;;;;;;19.83;15.88;;;18.90;99.90;;;;;;4877185;29;20419;-89
2023/07/29 00:29:58;;;;;;;22.53;16.00;;;18.90;99.90;;;;;;4892663;29;21010;-90
2023/07/29 00:32:24;;;;;;;19.05;14.93;;;19.20;99.90;;;;;;4892104;29;20427;-91
2023/07/29 00:34:49;;;;;;;22.17;15.90;;;18.90;99.90;;;;;;4862547;29;20419;-89
2023/07/29 00:37:15;;;;;;;20.63;15.43;;;18.80;99.90;;;;;;4860427;29;20420;-91
2023/07/29 00:39:41;;;;;;;22.03;16.73;;;19.00;99.90;;;;;;4877547;29;20482;-89
2023/07/29 00:42:06;;;;;;;20.47;15.53;;;18.90;99.90;;;;;;4860864;29;20426;-89
2023/07/29 00:44:32;;;;;;;21.50;15.63;;;19.10;99.90;;;;;;4877020;29;20415;-90
2023/07/29 00:47:00;;;;;;;20.88;16.08;;;18.80;99.90;;;;;;4877168;29;20517;-90
2023/07/29 00:49:26;;;;;;;19.97;15.43;;;18.70;99.90;;;;;;4876115;29;20450;-90
2023/07/29 00:51:52;;;;;;;20.50;15.80;;;19.10;99.90;;;;;;4877035;29;20415;-91
2023/07/29 00:54:17;;;;;;;22.55;17.02;;;18.50;99.90;;;;;;4891369;29;20498;-90
2023/07/29 00:56:43;;;;;;;21.40;16.47;;;18.70;99.90;;;;;;4877254;29;20431;-90
2023/07/29 00:59:09;;;;;;;24.48;17.55;;;18.70;99.90;;;;;;4891455;29;20415;-91
2023/07/29 01:01:35;;;;;;;20.00;15.90;;;18.60;99.90;;;;;;4862158;29;20415;-90
2023/07/29 01:04:01;;;;;;;22.38;16.58;;;18.90;99.90;;;;;;4892095;29;20422;-88
2023/07/29 01:07:12;;;;;;;21.90;17.23;;;18.90;99.90;;;;;;4876285;29;20443;-90
2023/07/29 01:10:00;;;;;;;23.23;17.55;;;18.60;99.90;;;;;;4877060;29;20434;-90
2023/07/29 01:12:35;;;;;;;23.08;18.55;;;18.30;99.90;;;;;;4876333;29;20427;-90
2023/07/29 01:15:10;;;;;;;21.73;18.08;;;18.70;99.90;;;;;;4876394;29;20427;-90
2023/07/29 01:17:47;;;;;;;23.23;18.42;;;18.60;99.90;;;;;;4876774;29;20516;-89
2023/07/29 01:20:17;;;;;;;23.27;18.17;;;18.80;99.90;;;;;;4875652;29;20407;-89
2023/07/29 01:22:43;;;;;;;23.05;17.95;;;18.60;99.90;;;;;;4876785;29;20430;-89
2023/07/29 01:25:08;;;;;;;22.80;18.48;;;18.80;99.90;;;;;;4875484;29;20453;-90
2023/07/29 01:27:34;;;;;;;24.13;19.50;;;18.80;99.90;;;;;;4891485;29;20504;-91
2023/07/29 01:30:02;;;;;;;22.45;18.70;;;18.50;99.90;;;;;;4860734;29;20472;-89
2023/07/29 01:32:59;;;;;;;25.63;20.77;;;18.50;99.90;;;;;;4891249;29;20490;-90
2023/07/29 01:35:59;;;;;;;23.50;19.40;;;18.40;99.90;;;;;;4876759;29;20474;-91
2023/07/29 01:38:34;;;;;;;24.25;19.92;;;18.40;99.90;;;;;;4876077;29;20427;-89
2023/07/29 01:41:02;;;;;;;25.67;19.42;;;18.30;99.90;;;;;;4875863;29;20425;-89
2023/07/29 01:43:32;;;;;;;24.45;20.10;;;18.60;99.90;;;;;;4876400;29;20407;-89
2023/07/29 01:45:58;;;;;;;25.80;20.58;;;18.20;99.90;;;;;;4875239;29;20470;-89
2023/07/29 01:48:24;;;;;;;25.40;21.00;;;18.50;99.90;;;;;;4892197;29;20489;-90
2023/07/29 01:50:50;;;;;;;25.27;20.20;;;18.20;99.90;;;;;;4891015;29;20741;-90
2023/07/29 01:53:15;;;;;;;24.55;20.13;;;18.00;99.90;;;;;;4876116;29;20973;-90
2023/07/29 01:55:44;;;;;;;24.15;19.23;;;18.30;99.90;;;;;;4891118;29;20427;-90
2023/07/29 01:58:10;;;;;;;22.77;19.52;;;18.20;99.90;;;;;;4875654;29;20410;-90
2023/07/29 02:00:35;;;;;;;23.58;19.83;;;18.30;99.90;;;;;;4875915;29;20423;-89
2023/07/29 02:03:01;;;;;;;23.53;20.30;;;18.40;99.90;;;;;;4859792;29;20502;-88
2023/07/29 02:05:27;;;;;;;26.67;21.50;;;18.10;99.90;;;;;;4861131;29;21033;-89
2023/07/29 02:07:52;;;;;;;26.20;21.77;;;18.20;99.90;;;;;;4859285;29;20411;-90
2023/07/29 02:10:18;;;;;;;23.98;20.20;;;18.50;99.90;;;;;;4860886;29;20419;-90
2023/07/29 02:12:44;;;;;;;26.33;21.00;;;18.10;99.90;;;;;;4875673;29;20472;-88
2023/07/29 02:15:09;;;;;;;24.37;20.30;;;18.20;99.90;;;;;;4891264;29;20914;-90
2023/07/29 02:17:35;;;;;;;24.65;20.83;;;18.10;99.90;;;;;;4892062;29;20820;-89
2023/07/29 02:20:01;;;;;;;24.85;20.10;;;18.20;99.90;;;;;;4875283;29;21005;-90
2023/07/29 02:22:27;;;;;;;24.87;20.63;;;18.20;99.90;;;;;;4876263;29;20411;-89
2023/07/29 02:24:52;;;;;;;22.95;20.00;;;18.10;99.90;;;;;;4859244;29;20474;-90
2023/07/29 02:27:18;;;;;;;23.60;20.50;;;18.00;99.90;;;;;;4878222;29;20418;-89
2023/07/29 02:29:43;;;;;;;21.52;18.73;;;18.20;99.90;;;;;;4863141;29;20923;-89
2023/07/29 02:32:09;;;;;;;24.67;19.20;;;18.10;99.90;;;;;;4864005;29;20447;-89
2023/07/29 02:34:35;;;;;;;23.95;19.95;;;18.30;99.90;;;;;;4863686;29;20419;-89
2023/07/29 02:37:00;;;;;;;22.87;18.33;;;18.20;99.90;;;;;;4863409;29;20427;-89
2023/07/29 02:39:26;;;;;;;21.23;18.00;;;17.80;99.90;;;;;;4879193;29;20482;-91
2023/07/29 02:41:52;;;;;;;25.30;19.50;;;17.70;99.90;;;;;;4878341;29;20419;-89
2023/07/29 02:44:19;;;;;;;20.95;17.10;;;17.70;99.90;;;;;;4864179;29;20431;-90
2023/07/29 02:46:44;;;;;;;23.25;17.70;;;17.50;99.90;;;;;;4893654;29;20486;-90
2023/07/29 02:49:10;;;;;;;21.00;17.20;;;17.70;99.90;;;;;;4864000;29;20454;-90
2023/07/29 02:51:36;;;;;;;23.25;17.80;;;17.70;99.90;;;;;;4878606;29;20423;-89
2023/07/29 02:54:02;;;;;;;19.13;16.03;;;17.60;99.90;;;;;;4863699;29;20515;-90
2023/07/29 02:56:27;;;;;;;21.77;16.63;;;17.80;99.90;;;;;;4894245;29;20790;-89
2023/07/29 02:58:53;;;;;;;18.50;15.38;;;17.50;99.90;;;;;;4862618;29;20423;-89
2023/07/29 03:01:20;;;;;;;20.30;16.43;;;17.80;99.90;;;;;;4894719;29;20845;-89
2023/07/29 03:03:45;;;;;;;23.25;17.02;;;17.10;99.90;;;;;;4893211;29;20962;-91
2023/07/29 03:06:14;;;;;;;20.47;14.83;;;17.60;99.90;;;;;;4863603;29;20442;-90
2023/07/29 03:08:40;;;;;;;22.40;15.27;;;17.30;99.90;;;;;;4893759;29;20462;-88
2023/07/29 03:11:10;;;;;;;21.23;15.93;;;17.30;99.90;;;;;;4863371;29;20459;-89
2023/07/29 03:13:37;;;;;;;23.52;16.40;;;17.30;99.90;;;;;;4878506;29;20427;-91
2023/07/29 03:16:23;;;;;;;18.38;13.15;;;17.20;99.90;;;;;;4877916;29;20973;-89
2023/07/29 03:18:49;;;;;;;17.47;13.83;;;17.20;99.90;;;;;;4878858;29;20442;-88
2023/07/29 03:21:15;;;;;;;17.10;12.57;;;17.10;99.90;;;;;;4877220;29;20989;-89
2023/07/29 03:23:41;;;;;;;19.95;13.90;;;17.10;99.90;;;;;;4894661;29;20415;-89
2023/07/29 03:26:10;;;;;;;24.67;15.48;;;17.20;99.90;;;;;;4877917;29;20435;-89
2023/07/29 03:28:38;;;;;;;21.88;14.88;;;17.20;99.90;;;;;;4878459;29;20407;-89
2023/07/29 03:31:03;;;;;;;29.85;15.35;;;17.00;99.90;;;;;;4878270;29;20807;-89
2023/07/29 03:33:29;;;;;;;16.63;12.73;;;17.00;99.90;;;;;;4861919;29;20423;-90
2023/07/29 03:35:55;;;;;;;15.43;12.23;;;16.90;99.90;;;;;;4878384;29;20415;-90
2023/07/29 03:38:21;;;;;;;12.63;8.60;;;17.40;99.90;;;;;;4861219;29;20423;-90
2023/07/29 03:40:46;;;;;;;20.88;13.05;;;17.30;99.90;;;;;;4894063;29;20507;-89
2023/07/29 03:43:12;;;;;;;16.80;11.67;;;17.30;99.90;;;;;;4892725;29;20415;-88
2023/07/29 03:45:39;;;;;;;20.20;12.57;;;16.90;99.90;;;;;;4893365;29;20442;-90
2023/07/29 03:48:05;;;;;;;14.93;10.55;;;17.30;99.90;;;;;;4877752;29;20437;-90
2023/07/29 03:50:32;;;;;;;17.65;11.77;;;17.00;99.90;;;;;;4877255;29;20930;-91
2023/07/29 03:52:58;;;;;;;14.93;10.57;;;16.80;99.90;;;;;;4878027;29;20505;-90
2023/07/29 03:55:24;;;;;;;16.13;11.07;;;16.90;99.90;;;;;;4892711;29;20521;-90
2023/07/29 03:57:49;;;;;;;16.35;11.68;;;16.80;99.90;;;;;;4862721;29;20430;-89
2023/07/29 04:00:15;;;;;;;17.90;10.90;;;17.10;99.90;;;;;;4892173;29;20415;-89
2023/07/29 04:02:41;;;;;;;16.10;10.43;;;16.80;99.90;;;;;;4862460;29;20407;-90
2023/07/29 04:05:10;;;;;;;16.70;10.95;;;16.90;99.90;;;;;;4877403;29;20496;-89
2023/07/29 04:07:36;;;;;;;13.35;9.45;;;16.80;99.90;;;;;;4893057;29;20554;-90
2023/07/29 04:10:03;;;;;;;14.23;9.27;;;16.80;99.90;;;;;;4877961;29;20423;-90
2023/07/29 04:12:28;;;;;;;12.95;8.98;;;16.80;99.90;;;;;;4876654;29;20426;-89
2023/07/29 04:14:54;;;;;;;16.02;9.77;;;17.00;99.90;;;;;;4877760;29;20479;-90
2023/07/29 04:17:20;;;;;;;13.53;8.93;;;16.80;99.90;;;;;;4860585;29;20426;-90
2023/07/29 04:19:45;;;;;;;11.90;7.80;;;16.80;99.90;;;;;;4862561;29;20423;-89
2023/07/29 04:22:11;;;;;;;14.40;7.60;;;17.00;99.90;;;;;;4861420;29;20439;-89
2023/07/29 04:24:37;;;;;;;11.30;6.63;;;16.80;99.90;;;;;;4861401;29;21001;-89
2023/07/29 04:27:03;;;;;;;11.05;6.40;;;16.80;99.90;;;;;;4877122;29;20462;-90
2023/07/29 04:29:29;;;;;;;13.43;8.15;;;16.90;99.90;;;;;;4893087;29;20468;-89
2023/07/29 04:31:55;;;;;;;10.15;6.40;;;17.00;99.90;;;;;;4898628;29;20430;-89
2023/07/29 04:34:20;;;;;;;13.57;7.00;;;16.90;99.90;;;;;;4875715;29;20418;-89
2023/07/29 04:36:47;;;;;;;10.07;5.50;;;17.00;99.90;;;;;;4877364;29;20434;-89
2023/07/29 04:39:12;;;;;;;11.05;5.82;;;17.30;99.90;;;;;;4875950;29;20427;-88
2023/07/29 04:41:38;;;;;;;10.27;6.80;;;17.30;99.90;;;;;;4876413;29;20419;-90
2023/07/29 04:44:04;;;;;;;10.38;6.22;;;17.10;99.90;;;;;;4876293;29;20418;-88
2023/07/29 04:46:29;;;;;;;10.77;6.13;;;17.10;99.90;;;;;;4876194;29;20466;-90
2023/07/29 04:48:55;;;;;;;11.13;5.70;;;17.60;99.90;;;;;;4876089;29;20512;-88
2023/07/29 04:51:22;;;;;;;10.95;6.13;;;17.10;99.90;;;;;;4886872;29;20506;-89
2023/07/29 04:53:48;;;;;;;8.25;5.78;;;17.20;99.90;;;;;;4895931;29;20955;-89
2023/07/29 04:56:13;;;;;;;9.80;5.78;;;17.30;99.90;;;;;;4893884;29;20413;-89
2023/07/29 04:58:39;;;;;;;9.07;5.72;;;17.30;99.90;;;;;;4880001;29;20409;-91
2023/07/29 05:01:05;;;;;;;8.93;5.50;;;17.40;99.90;;;;;;4878922;29;20429;-89
2023/07/29 05:03:31;;;;;;;10.98;5.60;;;17.60;99.90;;;;;;4894885;29;20906;-89
2023/07/29 05:05:59;;;;;;;10.65;5.43;;;17.40;99.90;;;;;;4880139;29;20452;-89
2023/07/29 05:08:25;;;;;;;10.23;5.60;;;17.40;99.90;;;;;;4894713;29;20419;-89
2023/07/29 05:10:52;;;;;;;8.85;5.40;;;17.40;99.90;;;;;;4910884;29;20416;-90
2023/07/29 05:13:18;;;;;;;10.47;5.60;;;17.40;99.90;;;;;;4893641;29;20410;-89
2023/07/29 05:15:44;;;;;;;9.98;5.53;;;17.40;99.90;;;;;;4895618;29;20504;-89
2023/07/29 05:18:09;;;;;;;10.23;5.85;;;17.50;99.90;;;;;;4879286;29;20468;-90
2023/07/29 05:20:35;;;;;;;9.53;5.73;;;17.70;99.90;;;;;;4879720;29;20460;-89
2023/07/29 05:23:00;;;;;;;10.23;5.15;;;17.60;99.90;;;;;;4910469;29;20444;-89
2023/07/29 05:25:27;;;;;;;9.70;5.50;;;17.60;99.90;;;;;;4883967;29;20446;-90
2023/07/29 05:27:53;;;;;;;11.18;5.47;;;17.90;99.90;;;;;;4895376;29;20417;-90
2023/07/29 05:30:18;;;;;;;11.60;5.43;;;17.90;99.90;;;;;;4904704;29;20443;-89
2023/07/29 05:32:44;;;;;;;12.70;6.07;;;17.60;99.90;;;;;;4886319;29;20415;-90
2023/07/29 05:35:10;;;;;;;10.93;5.57;;;18.00;99.90;;;;;;4890816;29;20811;-89
2023/07/29 05:37:42;;;;;;;11.77;5.95;;;17.70;99.90;;;;;;4892164;29;20432;-89
2023/07/29 05:40:11;;;;;;;9.32;5.40;;;17.70;99.90;;;;;;4909683;29;20421;-90
2023/07/29 05:42:36;;;;;;;11.37;5.97;;;17.70;99.90;;;;;;4909269;29;21216;-89
2023/07/29 05:45:02;;;;;;;10.30;5.68;;;17.80;99.90;;;;;;4910752;29;20448;-89
2023/07/29 05:47:28;;;;;;;10.95;6.03;;;17.80;99.90;;;;;;4909566;29;20496;-90
2023/07/29 05:49:54;;;;;;;9.50;5.70;;;17.70;99.90;;;;;;4910577;29;20932;-89
2023/07/29 05:52:19;;;;;;;8.02;5.13;;;17.80;99.90;;;;;;4908665;29;20488;-89
2023/07/29 05:54:45;;;;;;;11.40;5.67;;;18.10;99.90;;;;;;4910126;29;20995;-88
2023/07/29 05:57:12;;;;;;;10.07;5.38;;;17.80;99.90;;;;;;4907242;29;20498;-89
2023/07/29 05:59:38;;;;;;;9.70;5.70;;;17.80;99.90;;;;;;4886051;29;20834;-90
2023/07/29 06:02:04;;;;;;;9.70;5.40;;;17.80;99.90;;;;;;4879178;29;20462;-89
2023/07/29 06:04:29;;;;;;;9.90;5.20;;;17.90;99.90;;;;;;4893127;29;20465;-88
2023/07/29 06:06:55;;;;;;;7.38;4.63;;;17.90;99.90;;;;;;4897647;29;20480;-89
2023/07/29 06:09:22;;;;;;;8.87;5.33;;;18.00;99.90;;;;;;4891238;29;20430;-89
2023/07/29 06:11:47;;;;;;;10.32;4.75;;;18.00;99.90;;;;;;4879222;29;20410;-89
2023/07/29 06:14:13;;;;;;;10.97;5.20;;;18.10;99.90;;;;;;4881617;29;20413;-90
2023/07/29 06:16:39;;;;;;;9.70;5.05;;;18.30;99.90;;;;;;4898025;29;20440;-91
2023/07/29 06:19:04;;;;;;;10.20;4.60;;;18.50;99.90;;;;;;4897397;29;20410;-89
2023/07/29 06:21:30;;;;;;;10.18;4.20;;;18.70;99.90;;;;;;4897224;29;20421;-90
2023/07/29 06:23:56;;;;;;;11.40;4.72;;;18.70;99.90;;;;;;4897529;29;20449;-89
2023/07/29 06:26:22;;;;;;;11.17;4.60;;;19.10;99.90;;;;;;4888297;29;20483;-90
2023/07/29 06:28:47;;;;;;;10.13;4.13;;;18.90;99.90;;;;;;4899749;29;20425;-90
2023/07/29 06:31:13;;;;;;;10.30;4.30;;;19.00;99.90;;;;;;4885380;29;20467;-90
2023/07/29 06:33:39;;;;;;;12.00;4.82;;;19.10;99.90;;;;;;4894939;29;20452;-89
2023/07/29 06:36:04;;;;;;;12.25;4.43;;;18.80;99.90;;;;;;4877271;29;20471;-90
2023/07/29 06:38:30;;;;;;;7.95;4.20;;;19.10;99.90;;;;;;4912886;29;20824;-90
2023/07/29 06:40:56;;;;;;;9.47;4.17;;;19.10;99.90;;;;;;4896292;29;20421;-89
2023/07/29 06:43:21;;;;;;;11.02;4.30;;;19.30;99.90;;;;;;4896602;29;20418;-90
2023/07/29 06:45:47;;;;;;;9.60;3.93;;;19.30;99.90;;;;;;4898106;29;20441;-90
2023/07/29 06:48:13;;;;;;;9.23;3.38;;;19.50;99.90;;;;;;4887054;29;20918;-90
2023/07/29 06:50:38;;;;;;;9.53;3.60;;;19.80;99.90;;;;;;4879072;29;20411;-90
2023/07/29 06:53:04;;;;;;;9.15;3.60;;;19.50;99.90;;;;;;4877943;29;20422;-90
2023/07/29 06:55:29;;;;;;;10.03;3.47;;;19.60;99.90;;;;;;4878361;29;20451;-89
2023/07/29 06:57:55;;;;;;;8.83;3.30;;;19.70;99.90;;;;;;4894618;29;20581;-90
2023/07/29 07:00:21;;;;;;;9.82;3.40;;;19.70;99.90;;;;;;4877862;29;21033;-89
2023/07/29 07:02:46;;;;;;;7.87;3.13;;;20.20;99.90;;;;;;4879269;29;20411;-91
2023/07/29 07:05:12;;;;;;;8.32;3.33;;;19.90;99.90;;;;;;4877396;29;20438;-91
2023/07/29 07:07:38;;;;;;;11.60;3.43;;;19.70;99.90;;;;;;4878288;29;20475;-89
2023/07/29 07:10:04;;;;;;;9.35;3.10;;;19.90;99.90;;;;;;4890967;29;20448;-90
2023/07/29 07:12:29;;;;;;;7.90;2.57;;;19.70;99.90;;;;;;4896641;29;20417;-91
2023/07/29 07:14:55;;;;;;;9.45;3.22;;;20.00;99.90;;;;;;4887459;29;20438;-90
2023/07/29 07:17:20;;;;;;;8.97;2.83;;;19.90;99.90;;;;;;4893883;29;20419;-90
2023/07/29 07:19:46;;;;;;;9.02;2.85;;;19.70;99.90;;;;;;4902233;29;20415;-90
2023/07/29 07:22:12;;;;;;;10.17;3.10;;;19.80;99.90;;;;;;4877313;29;20478;-91
2023/07/29 07:24:37;;;;;;;8.32;3.13;;;19.90;99.90;;;;;;4878906;29;20415;-91
2023/07/29 07:27:03;;;;;;;7.90;2.53;;;20.00;99.90;;;;;;4877367;29;20447;-90
2023/07/29 07:29:30;;;;;;;8.50;2.45;;;20.30;99.90;;;;;;4894452;29;20899;-88
2023/07/29 07:31:56;;;;;;;7.88;2.15;;;20.40;99.90;;;;;;4877909;29;20776;-90
2023/07/29 07:34:22;;;;;;;9.27;2.58;;;20.70;99.90;;;;;;4885127;29;20421;-88
2023/07/29 07:36:47;;;;;;;8.25;2.47;;;20.60;99.90;;;;;;4896729;29;20507;-90
2023/07/29 07:39:13;;;;;;;6.07;2.33;;;20.80;99.90;;;;;;4896579;29;20429;-91
2023/07/29 07:41:39;;;;;;;8.98;2.25;;;21.20;99.90;;;;;;4897036;29;20957;-90
2023/07/29 07:44:05;;;;;;;8.25;2.33;;;21.10;99.90;;;;;;4895852;29;20424;-91
2023/07/29 07:46:31;;;;;;;9.55;2.08;;;21.20;99.90;;;;;;4896981;29;20436;-92
2023/07/29 07:48:56;;;;;;;5.72;1.73;;;21.60;99.90;;;;;;4881320;29;20503;-90
2023/07/29 07:51:22;;;;;;;6.70;2.20;;;21.40;99.90;;;;;;4912543;29;20449;-91
2023/07/29 07:53:48;;;;;;;6.90;1.90;;;21.50;99.90;;;;;;4880662;29;20424;-90
2023/07/29 07:56:15;;;;;;;6.88;2.03;;;21.60;99.90;;;;;;4900006;29;20501;-90
2023/07/29 07:58:40;;;;;;;6.50;1.80;;;21.60;99.90;;;;;;4912423;29;20772;-89
2023/07/29 08:01:08;;;;;;;5.15;1.73;;;21.50;99.90;;;;;;4895865;29;20508;-91
2023/07/29 08:03:35;;;;;;;5.45;1.80;;;21.50;99.90;;;;;;4896709;29;20536;-91
2023/07/29 08:06:01;;;;;;;7.68;1.95;;;21.50;99.90;;;;;;4895106;29;20441;-89
2023/07/29 08:08:27;;;;;;;5.72;1.90;;;21.40;99.90;;;;;;4896482;29;20843;-90
2023/07/29 08:10:54;;;;;;;6.45;1.92;;;21.40;99.90;;;;;;4911612;29;20413;-90
2023/07/29 08:13:23;;;;;;;5.80;1.70;;;21.40;99.90;;;;;;4895988;29;20429;-90
2023/07/29 08:15:50;;;;;;;4.45;1.77;;;21.60;99.90;;;;;;4895997;29;20917;-91
2023/07/29 08:18:17;;;;;;;5.65;1.60;;;21.60;99.90;;;;;;4895326;29;20421;-92
2023/07/29 08:20:57;;;;;;;6.00;1.55;;;21.90;99.90;;;;;;4896439;29;20504;-91
2023/07/29 08:23:24;;;;;;;6.55;1.60;;;21.70;99.90;;;;;;4893770;29;20437;-90
2023/07/29 08:26:02;;;;;;;6.10;1.30;;;22.10;99.90;;;;;;4895929;29;20421;-90
2023/07/29 08:28:36;;;;;;;5.25;1.45;;;21.90;99.90;;;;;;4895934;29;20436;-90
2023/07/29 08:31:02;;;;;;;3.83;1.40;;;21.80;99.90;;;;;;4895809;29;20882;-91
2023/07/29 08:33:29;;;;;;;4.82;1.30;;;21.50;99.90;;;;;;4912138;29;20443;-90
2023/07/29 08:35:54;;;;;;;5.25;1.27;;;21.30;99.90;;;;;;4895058;29;20413;-90
2023/07/29 08:38:21;;;;;;;5.63;1.50;;;21.30;99.90;;;;;;4896271;29;21069;-90
2023/07/29 08:41:06;;;;;;;4.60;1.42;;;21.30;99.90;;;;;;4910599;29;20429;-90
2023/07/29 08:43:32;;;;;;;6.67;1.70;;;21.40;99.90;;;;;;4895502;29;20941;-91
2023/07/29 08:45:59;;;;;;;3.97;1.08;;;21.60;99.90;;;;;;4895566;29;20441;-90
2023/07/29 08:48:41;;;;;;;5.55;1.30;;;22.00;99.90;;;;;;4894750;29;21361;-90
2023/07/29 08:51:09;;;;;;;4.03;1.10;;;22.10;99.90;;;;;;4895907;29;20500;-90
2023/07/29 08:53:35;;;;;;;4.20;1.00;;;21.80;99.90;;;;;;4894142;29;20416;-90
2023/07/29 08:56:01;;;;;;;5.50;1.10;;;21.90;99.90;;;;;;4895378;29;20426;-90
2023/07/29 08:58:27;;;;;;;5.65;1.23;;;21.90;99.90;;;;;;4892395;29;20436;-88
2023/07/29 09:00:53;;;;;;;5.20;0.90;;;22.40;99.90;;;;;;4892852;29;20493;-89
2023/07/29 09:03:20;;;;;;;4.07;0.83;;;22.70;99.90;;;;;;4894175;29;20488;-88
2023/07/29 09:05:46;;;;;;;3.80;0.82;;;22.90;99.90;;;;;;4893367;29;20979;-89
2023/07/29 09:08:12;;;;;;;4.93;0.77;;;23.10;99.90;;;;;;4909842;29;20465;-87
2023/07/29 09:10:38;;;;;;;3.72;0.93;;;23.30;99.90;;;;;;4908834;29;20413;-87
2023/07/29 09:13:05;;;;;;;3.60;0.90;;;23.60;99.90;;;;;;4893592;29;20980;-88
2023/07/29 09:15:32;;;;;;;5.33;0.90;;;23.60;99.90;;;;;;4921195;29;20433;-88
2023/07/29 09:17:59;;;;;;;4.32;0.70;;;23.50;99.90;;;;;;4874732;29;20491;-89
2023/07/29 09:20:28;;;;;;;3.45;0.73;;;23.50;99.90;;;;;;4886200;29;20409;-88
2023/07/29 09:22:57;;;;;;;4.70;0.70;;;23.50;99.90;;;;;;4893314;29;20872;-89
2023/07/29 09:25:27;;;;;;;4.50;0.82;;;23.00;99.90;;;;;;4892745;29;20805;-87
2023/07/29 09:28:00;;;;;;;3.55;0.60;;;22.80;99.90;;;;;;4874202;29;20902;-89
2023/07/29 09:30:26;;;;;;;4.03;0.63;;;22.70;99.90;;;;;;4891496;29;20506;-89
2023/07/29 09:32:58;;;;;;;3.63;0.67;;;22.80;99.90;;;;;;4893464;29;20810;-88
2023/07/29 09:35:27;;;;;;;2.90;0.70;;;22.80;99.90;;;;;;4892339;29;20500;-88
2023/07/29 09:37:53;;;;;;;4.07;0.80;;;22.80;99.90;;;;;;4890662;29;20413;-88
2023/07/29 09:40:19;;;;;;;2.70;0.50;;;22.90;99.90;;;;;;4874372;29;20517;-89
2023/07/29 09:42:52;;;;;;;3.10;0.57;;;22.40;99.90;;;;;;4893475;29;20424;-88
2023/07/29 09:45:26;;;;;;;3.20;0.57;;;22.60;99.90;;;;;;4923063;29;20458;-91
2023/07/29 09:47:53;;;;;;;3.72;0.80;;;22.50;99.90;;;;;;4893890;29;20425;-90
2023/07/29 09:50:22;;;;;;;2.97;0.68;;;22.70;99.90;;;;;;4893198;29;20947;-86
2023/07/29 09:52:49;;;;;;;4.97;0.80;;;22.70;99.90;;;;;;4892668;29;20417;-87
2023/07/29 09:55:26;;;;;;;4.38;0.50;;;22.80;99.90;;;;;;4893210;29;20436;-89
2023/07/29 09:58:01;;;;;;;2.53;0.40;;;22.90;99.90;;;;;;4892524;29;20409;-90
2023/07/29 10:00:31;;;;;;;3.63;0.60;;;23.10;99.90;;;;;;4893409;29;20437;-90
2023/07/29 10:02:58;;;;;;;4.13;0.50;;;23.20;99.90;;;;;;4892520;29;20515;-89
2023/07/29 10:05:28;;;;;;;4.03;0.70;;;23.60;99.90;;;;;;4886856;29;20441;-88
2023/07/29 10:07:54;;;;;;;3.67;0.65;;;23.50;99.90;;;;;;4889974;29;20774;-87
2023/07/29 10:10:20;;;;;;;3.40;0.70;;;23.50;99.90;;;;;;4876086;29;20770;-88
2023/07/29 10:12:47;;;;;;;4.22;0.63;;;23.20;99.90;;;;;;4905400;29;20513;-88
2023/07/29 10:15:13;;;;;;;3.50;1.00;;;23.20;99.90;;;;;;4892492;29;20417;-88
2023/07/29 10:17:40;;;;;;;7.05;0.85;;;23.10;99.90;;;;;;4894250;29;20417;-90
2023/07/29 10:20:08;;;;;;;4.40;0.90;;;22.90;99.90;;;;;;4908757;29;20477;-89
2023/07/29 10:22:37;;;;;;;4.20;1.08;;;22.70;99.90;;;;;;4909288;29;20516;-87
2023/07/29 10:25:07;;;;;;;6.32;1.20;;;22.50;99.90;;;;;;4908970;29;20427;-87
2023/07/29 10:28:21;;;;;;;6.13;1.35;;;22.30;99.90;;;;;;4892275;29;20455;-86
2023/07/29 10:30:47;;;;;;;5.22;1.00;;;22.10;99.90;;;;;;4854631;29;20523;-87
2023/07/29 10:33:14;;;;;;;4.05;0.90;;;22.00;99.90;;;;;;4838387;29;20424;-87
2023/07/29 10:35:40;;;;;;;4.18;1.10;;;22.00;99.90;;;;;;4863572;29;20734;-88
2023/07/29 10:38:06;;;;;;;5.43;1.10;;;22.40;99.90;;;;;;4909022;29;20931;-85
2023/07/29 10:40:55;;;;;;;4.38;1.17;;;21.90;99.90;;;;;;4891982;29;20418;-87
2023/07/29 10:43:34;;;;;;;3.92;1.08;;;21.80;99.90;;;;;;4908412;29;20441;-84
2023/07/29 10:46:19;;;;;;;4.90;1.05;;;21.60;99.90;;;;;;4891365;29;20443;-86
2023/07/29 10:48:56;;;;;;;5.57;1.30;;;21.50;99.90;;;;;;4894895;29;20781;-86
2023/07/29 10:51:36;;;;;;;4.82;1.40;;;21.40;99.90;;;;;;4913506;29;20829;-90
2023/07/29 10:54:02;;;;;;;5.40;1.38;;;21.30;99.90;;;;;;4912530;29;20512;-91
2023/07/29 10:56:30;;;;;;;3.10;1.10;;;21.30;99.90;;;;;;4896995;29;20437;-91
2023/07/29 10:58:57;;;;;;;6.00;1.20;;;21.70;99.90;;;;;;4912255;29;20464;-91
2023/07/29 11:01:32;;;;;;;4.07;1.10;;;21.80;99.90;;;;;;4897589;29;20429;-91
2023/07/29 11:04:23;;;;;;;3.47;1.00;;;21.80;99.90;;;;;;4896875;29;20783;-91
2023/07/29 11:07:22;;;;;;;3.65;1.00;;;22.50;99.90;;;;;;4894045;29;20548;-90
2023/07/29 11:09:48;;;;;;;2.90;1.00;;;22.70;99.90;;;;;;4898276;29;20422;-90
2023/07/29 11:12:32;;;;;;;2.17;0.80;;;23.10;99.90;;;;;;4896643;29;21204;-87
2023/07/29 11:15:17;;;;;;;3.58;0.90;;;23.20;99.90;;;;;;4912725;29;20925;-91
2023/07/29 11:17:44;;;;;;;3.47;0.80;;;23.30;99.90;;;;;;4897798;29;20440;-90
2023/07/29 11:20:11;;;;;;;3.50;0.60;;;23.20;99.90;;;;;;4895481;29;20410;-91
2023/07/29 11:22:41;;;;;;;4.35;0.88;;;23.10;99.90;;;;;;4897516;29;20446;-90
2023/07/29 11:25:15;;;;;;;4.72;0.90;;;22.80;99.90;;;;;;4896188;29;20433;-89
2023/07/29 11:27:41;;;;;;;3.95;0.80;;;22.40;99.90;;;;;;4912719;29;20837;-90
2023/07/29 11:30:09;;;;;;;2.63;0.80;;;22.10;99.90;;;;;;4897038;29;20477;-90
2023/07/29 11:32:35;;;;;;;4.45;0.80;;;22.00;99.90;;;;;;4895410;29;20430;-92
2023/07/29 11:35:14;;;;;;;4.38;0.70;;;22.00;99.90;;;;;;4912256;29;20440;-89
2023/07/29 11:37:41;;;;;;;4.55;0.90;;;21.90;99.90;;;;;;4896018;29;20421;-89
2023/07/29 11:40:11;;;;;;;3.13;1.02;;;21.80;99.90;;;;;;4897390;29;20468;-89
2023/07/29 11:42:37;;;;;;;3.00;0.70;;;21.70;99.90;;;;;;4896512;29;20841;-89
2023/07/29 11:45:06;;;;;;;3.25;0.90;;;21.50;99.90;;;;;;4896006;29;20464;-91
2023/07/29 11:47:35;;;;;;;4.43;1.20;;;21.20;99.90;;;;;;4897012;29;20418;-91
2023/07/29 11:50:02;;;;;;;3.53;1.60;;;20.70;99.90;;;;;;4895430;29;20936;-90
2023/07/29 11:52:28;;;;;;;5.15;2.10;;;20.80;99.90;;;;;;4896897;29;20424;-93
2023/07/29 11:54:54;;;;;;;3.77;1.90;;;20.40;99.90;;;;;;4895346;29;20416;-91
2023/07/29 11:57:20;;;;;;;5.22;1.73;;;20.30;99.90;;;;;;4896960;29;20428;-90
2023/07/29 11:59:47;;;;;;;4.13;2.10;;;20.20;99.90;;;;;;4911617;29;20409;-90
2023/07/29 12:02:19;;;;;;;4.47;1.95;;;20.50;99.90;;;;;;4896087;29;20480;-92
2023/07/29 12:04:47;;;;;;;3.80;1.95;;;20.80;99.90;;;;;;4895025;29;20836;-86
2023/07/29 12:07:14;;;;;;;3.72;2.00;;;21.40;99.90;;;;;;4893173;29;20437;-86
2023/07/29 12:09:41;;;;;;;4.70;1.90;;;21.30;99.90;;;;;;4910344;29;20912;-85
2023/07/29 12:12:07;;;;;;;4.25;1.80;;;21.80;99.90;;;;;;4908968;29;20421;-88
2023/07/29 12:14:34;;;;;;;4.18;1.52;;;22.20;99.90;;;;;;4910787;29;20769;-86
2023/07/29 12:17:01;;;;;;;4.28;1.30;;;22.50;99.90;;;;;;4893378;29;20413;-86
2023/07/29 12:19:37;;;;;;;4.07;1.30;;;22.30;99.90;;;;;;4893286;29;20959;-86
2023/07/29 12:22:05;;;;;;;3.45;1.40;;;22.50;99.90;;;;;;4910091;29;20896;-85
2023/07/29 12:24:32;;;;;;;4.68;1.40;;;22.00;99.90;;;;;;4892932;29;20421;-86
2023/07/29 12:26:58;;;;;;;3.85;1.20;;;21.90;99.90;;;;;;4894238;29;20444;-86
2023/07/29 12:29:25;;;;;;;4.57;1.40;;;21.70;99.90;;;;;;4908801;29;20747;-86
2023/07/29 12:31:59;;;;;;;3.92;1.10;;;21.70;99.90;;;;;;4894325;29;20855;-87
2023/07/29 12:34:27;;;;;;;3.50;1.20;;;21.80;99.90;;;;;;4892979;29;20436;-87
2023/07/29 12:36:54;;;;;;;4.00;1.42;;;21.70;99.90;;;;;;4909034;29;20943;-87
2023/07/29 12:39:29;;;;;;;3.75;0.70;;;21.70;99.90;;;;;;4894265;29;20429;-86
2023/07/29 12:41:58;;;;;;;4.45;0.77;;;21.70;99.90;;;;;;4893038;29;20453;-86